sensor_id;sensor_type;location;lat;lon;timestamp;P1;durP1;ratioP1;P2;durP2;ratioP2
21862;SDS011;11096;51.338;12.524;2023-12-07T00:02:06;34.20;;;20.92;;
21862;SDS011;11096;51.338;12.524;2023-12-07T00:04:31;37.22;;;20.75;;
21862;SDS011;11096;51.338;12.524;2023-12-07T00:06:57;38.22;;;20.88;;
21862;SDS011;11096;51.338;12.524;2023-12-07T00:09:22;35.08;;;20.77;;
21862;SDS011;11096;51.338;12.524;2023-12-07T00:11:47;36.78;;;21.05;;
21862;SDS011;11096;51.338;12.524;2023-12-07T00:14:13;33.97;;;19.73;;
21862;SDS011;11096;51.338;12.524;2023-12-07T00:16:38;38.33;;;21.42;;
21862;SDS011;11096;51.338;12.524;2023-12-07T00:19:03;33.92;;;20.08;;
21862;SDS011;11096;51.338;12.524;2023-12-07T00:21:29;33.63;;;20.10;;
21862;SDS011;11096;51.338;12.524;2023-12-07T00:23:54;34.35;;;19.75;;
21862;SDS011;11096;51.338;12.524;2023-12-07T00:26:20;34.97;;;19.33;;
21862;SDS011;11096;51.338;12.524;2023-12-07T00:28:46;39.85;;;20.60;;
21862;SDS011;11096;51.338;12.524;2023-12-07T00:31:11;36.83;;;21.02;;
21862;SDS011;11096;51.338;12.524;2023-12-07T00:33:36;36.78;;;20.60;;
21862;SDS011;11096;51.338;12.524;2023-12-07T00:36:02;37.97;;;21.13;;
21862;SDS011;11096;51.338;12.524;2023-12-07T00:38:28;39.42;;;21.80;;
21862;SDS011;11096;51.338;12.524;2023-12-07T00:40:54;37.30;;;20.60;;
21862;SDS011;11096;51.338;12.524;2023-12-07T00:43:19;38.95;;;20.92;;
21862;SDS011;11096;51.338;12.524;2023-12-07T00:45:44;37.60;;;21.52;;
21862;SDS011;11096;51.338;12.524;2023-12-07T00:48:10;38.80;;;20.90;;
21862;SDS011;11096;51.338;12.524;2023-12-07T00:50:35;37.75;;;20.40;;
21862;SDS011;11096;51.338;12.524;2023-12-07T00:53:01;39.95;;;21.63;;
21862;SDS011;11096;51.338;12.524;2023-12-07T00:55:26;41.17;;;21.25;;
21862;SDS011;11096;51.338;12.524;2023-12-07T00:57:52;35.60;;;20.90;;
21862;SDS011;11096;51.338;12.524;2023-12-07T01:00:17;34.65;;;20.42;;
21862;SDS011;11096;51.338;12.524;2023-12-07T01:02:43;35.83;;;20.33;;
21862;SDS011;11096;51.338;12.524;2023-12-07T01:05:09;36.03;;;20.42;;
21862;SDS011;11096;51.338;12.524;2023-12-07T01:07:34;37.15;;;20.70;;
21862;SDS011;11096;51.338;12.524;2023-12-07T01:09:59;37.38;;;19.77;;
21862;SDS011;11096;51.338;12.524;2023-12-07T01:12:25;38.22;;;21.20;;
21862;SDS011;11096;51.338;12.524;2023-12-07T01:14:50;42.33;;;21.77;;
21862;SDS011;11096;51.338;12.524;2023-12-07T01:17:17;36.50;;;20.85;;
21862;SDS011;11096;51.338;12.524;2023-12-07T01:19:42;41.38;;;22.58;;
21862;SDS011;11096;51.338;12.524;2023-12-07T01:22:08;39.30;;;22.50;;
21862;SDS011;11096;51.338;12.524;2023-12-07T01:24:33;38.75;;;21.77;;
21862;SDS011;11096;51.338;12.524;2023-12-07T01:26:59;39.78;;;21.50;;
21862;SDS011;11096;51.338;12.524;2023-12-07T01:29:24;42.00;;;21.05;;
21862;SDS011;11096;51.338;12.524;2023-12-07T01:31:50;42.45;;;22.20;;
21862;SDS011;11096;51.338;12.524;2023-12-07T01:34:16;42.80;;;22.05;;
21862;SDS011;11096;51.338;12.524;2023-12-07T01:36:43;40.67;;;22.30;;
21862;SDS011;11096;51.338;12.524;2023-12-07T01:39:09;34.40;;;19.77;;
21862;SDS011;11096;51.338;12.524;2023-12-07T01:41:37;40.63;;;21.98;;
21862;SDS011;11096;51.338;12.524;2023-12-07T01:44:03;37.42;;;20.73;;
21862;SDS011;11096;51.338;12.524;2023-12-07T01:46:29;41.03;;;21.27;;
21862;SDS011;11096;51.338;12.524;2023-12-07T01:48:55;43.80;;;22.42;;
21862;SDS011;11096;51.338;12.524;2023-12-07T01:51:21;39.63;;;21.35;;
21862;SDS011;11096;51.338;12.524;2023-12-07T01:53:47;39.30;;;21.67;;
21862;SDS011;11096;51.338;12.524;2023-12-07T01:56:13;40.63;;;21.52;;
21862;SDS011;11096;51.338;12.524;2023-12-07T01:58:39;40.10;;;20.92;;
21862;SDS011;11096;51.338;12.524;2023-12-07T02:01:04;34.25;;;19.92;;
21862;SDS011;11096;51.338;12.524;2023-12-07T02:03:31;44.08;;;21.83;;
21862;SDS011;11096;51.338;12.524;2023-12-07T02:05:57;39.75;;;21.10;;
21862;SDS011;11096;51.338;12.524;2023-12-07T02:08:23;37.45;;;19.33;;
21862;SDS011;11096;51.338;12.524;2023-12-07T02:10:49;40.50;;;20.65;;
21862;SDS011;11096;51.338;12.524;2023-12-07T02:13:15;38.05;;;21.05;;
21862;SDS011;11096;51.338;12.524;2023-12-07T02:15:40;40.25;;;22.13;;
21862;SDS011;11096;51.338;12.524;2023-12-07T02:20:39;38.63;;;20.50;;
21862;SDS011;11096;51.338;12.524;2023-12-07T02:23:10;37.58;;;20.10;;
21862;SDS011;11096;51.338;12.524;2023-12-07T02:28:18;37.22;;;21.13;;
21862;SDS011;11096;51.338;12.524;2023-12-07T02:30:44;38.95;;;21.48;;
21862;SDS011;11096;51.338;12.524;2023-12-07T02:33:10;43.22;;;21.92;;
21862;SDS011;11096;51.338;12.524;2023-12-07T02:35:37;39.33;;;21.23;;
21862;SDS011;11096;51.338;12.524;2023-12-07T02:38:03;44.70;;;21.60;;
21862;SDS011;11096;51.338;12.524;2023-12-07T02:40:30;44.72;;;21.40;;
21862;SDS011;11096;51.338;12.524;2023-12-07T02:42:56;40.67;;;20.90;;
21862;SDS011;11096;51.338;12.524;2023-12-07T02:45:23;36.70;;;20.85;;
21862;SDS011;11096;51.338;12.524;2023-12-07T02:47:48;48.15;;;22.63;;
21862;SDS011;11096;51.338;12.524;2023-12-07T02:50:14;38.40;;;20.92;;
21862;SDS011;11096;51.338;12.524;2023-12-07T02:52:40;43.47;;;21.90;;
21862;SDS011;11096;51.338;12.524;2023-12-07T02:55:06;46.72;;;22.27;;
21862;SDS011;11096;51.338;12.524;2023-12-07T02:57:32;41.35;;;20.88;;
21862;SDS011;11096;51.338;12.524;2023-12-07T03:00:00;42.58;;;22.10;;
21862;SDS011;11096;51.338;12.524;2023-12-07T03:02:31;40.28;;;22.38;;
21862;SDS011;11096;51.338;12.524;2023-12-07T03:04:58;41.13;;;21.60;;
21862;SDS011;11096;51.338;12.524;2023-12-07T03:07:23;42.67;;;21.63;;
21862;SDS011;11096;51.338;12.524;2023-12-07T03:09:49;46.60;;;22.27;;
21862;SDS011;11096;51.338;12.524;2023-12-07T03:12:14;42.42;;;21.70;;
21862;SDS011;11096;51.338;12.524;2023-12-07T03:14:39;46.22;;;21.88;;
21862;SDS011;11096;51.338;12.524;2023-12-07T03:17:05;43.60;;;22.08;;
21862;SDS011;11096;51.338;12.524;2023-12-07T03:19:30;45.17;;;22.83;;
21862;SDS011;11096;51.338;12.524;2023-12-07T03:21:55;43.55;;;22.77;;
21862;SDS011;11096;51.338;12.524;2023-12-07T03:24:21;47.00;;;23.00;;
21862;SDS011;11096;51.338;12.524;2023-12-07T03:26:46;44.80;;;22.40;;
21862;SDS011;11096;51.338;12.524;2023-12-07T03:29:11;42.55;;;22.02;;
21862;SDS011;11096;51.338;12.524;2023-12-07T03:31:37;48.63;;;23.15;;
21862;SDS011;11096;51.338;12.524;2023-12-07T03:34:02;44.53;;;21.38;;
21862;SDS011;11096;51.338;12.524;2023-12-07T03:36:28;44.42;;;22.40;;
21862;SDS011;11096;51.338;12.524;2023-12-07T03:38:54;51.83;;;23.85;;
21862;SDS011;11096;51.338;12.524;2023-12-07T03:41:19;46.58;;;23.90;;
21862;SDS011;11096;51.338;12.524;2023-12-07T03:43:44;46.85;;;22.63;;
21862;SDS011;11096;51.338;12.524;2023-12-07T03:46:10;48.60;;;24.48;;
21862;SDS011;11096;51.338;12.524;2023-12-07T03:48:35;48.75;;;23.27;;
21862;SDS011;11096;51.338;12.524;2023-12-07T03:51:00;49.97;;;22.75;;
21862;SDS011;11096;51.338;12.524;2023-12-07T03:53:27;55.05;;;24.95;;
21862;SDS011;11096;51.338;12.524;2023-12-07T03:55:52;53.28;;;24.27;;
21862;SDS011;11096;51.338;12.524;2023-12-07T03:58:18;49.80;;;23.25;;
21862;SDS011;11096;51.338;12.524;2023-12-07T04:00:44;46.80;;;23.17;;
21862;SDS011;11096;51.338;12.524;2023-12-07T04:03:09;48.35;;;22.90;;
21862;SDS011;11096;51.338;12.524;2023-12-07T04:05:35;54.47;;;24.58;;
21862;SDS011;11096;51.338;12.524;2023-12-07T04:08:00;49.33;;;23.80;;
21862;SDS011;11096;51.338;12.524;2023-12-07T04:10:26;51.90;;;23.85;;
21862;SDS011;11096;51.338;12.524;2023-12-07T04:12:51;46.47;;;22.95;;
21862;SDS011;11096;51.338;12.524;2023-12-07T04:15:18;44.47;;;21.52;;
21862;SDS011;11096;51.338;12.524;2023-12-07T04:17:44;47.38;;;23.38;;
21862;SDS011;11096;51.338;12.524;2023-12-07T04:20:09;49.95;;;23.25;;
21862;SDS011;11096;51.338;12.524;2023-12-07T04:22:35;49.10;;;23.27;;
21862;SDS011;11096;51.338;12.524;2023-12-07T04:25:00;50.22;;;23.67;;
21862;SDS011;11096;51.338;12.524;2023-12-07T04:27:25;47.92;;;23.42;;
21862;SDS011;11096;51.338;12.524;2023-12-07T04:29:51;48.17;;;22.90;;
21862;SDS011;11096;51.338;12.524;2023-12-07T04:32:16;45.20;;;22.60;;
21862;SDS011;11096;51.338;12.524;2023-12-07T04:34:41;49.13;;;23.73;;
21862;SDS011;11096;51.338;12.524;2023-12-07T04:37:07;48.15;;;24.10;;
21862;SDS011;11096;51.338;12.524;2023-12-07T04:39:32;48.85;;;23.13;;
21862;SDS011;11096;51.338;12.524;2023-12-07T04:41:58;49.83;;;24.40;;
21862;SDS011;11096;51.338;12.524;2023-12-07T04:44:23;48.05;;;24.67;;
21862;SDS011;11096;51.338;12.524;2023-12-07T04:46:50;52.50;;;24.20;;
21862;SDS011;11096;51.338;12.524;2023-12-07T04:49:16;47.33;;;23.70;;
21862;SDS011;11096;51.338;12.524;2023-12-07T04:51:41;51.78;;;24.45;;
21862;SDS011;11096;51.338;12.524;2023-12-07T04:54:11;51.83;;;24.38;;
21862;SDS011;11096;51.338;12.524;2023-12-07T04:56:37;45.92;;;23.33;;
21862;SDS011;11096;51.338;12.524;2023-12-07T04:59:02;47.28;;;23.38;;
21862;SDS011;11096;51.338;12.524;2023-12-07T05:01:27;52.95;;;24.73;;
21862;SDS011;11096;51.338;12.524;2023-12-07T05:03:53;50.92;;;24.90;;
21862;SDS011;11096;51.338;12.524;2023-12-07T05:06:18;52.05;;;25.50;;
21862;SDS011;11096;51.338;12.524;2023-12-07T05:08:44;53.38;;;23.70;;
21862;SDS011;11096;51.338;12.524;2023-12-07T05:11:09;48.85;;;23.00;;
21862;SDS011;11096;51.338;12.524;2023-12-07T05:13:34;51.10;;;24.20;;
21862;SDS011;11096;51.338;12.524;2023-12-07T05:16:00;50.63;;;24.50;;
21862;SDS011;11096;51.338;12.524;2023-12-07T05:18:26;51.78;;;24.10;;
21862;SDS011;11096;51.338;12.524;2023-12-07T05:20:51;50.13;;;24.50;;
21862;SDS011;11096;51.338;12.524;2023-12-07T05:23:17;49.55;;;22.90;;
21862;SDS011;11096;51.338;12.524;2023-12-07T05:25:42;54.63;;;24.80;;
21862;SDS011;11096;51.338;12.524;2023-12-07T05:28:08;54.50;;;24.10;;
21862;SDS011;11096;51.338;12.524;2023-12-07T05:30:34;49.15;;;24.23;;
21862;SDS011;11096;51.338;12.524;2023-12-07T05:33:00;46.97;;;23.48;;
21862;SDS011;11096;51.338;12.524;2023-12-07T05:35:25;48.00;;;24.17;;
21862;SDS011;11096;51.338;12.524;2023-12-07T05:37:51;52.05;;;24.83;;
21862;SDS011;11096;51.338;12.524;2023-12-07T05:40:16;48.55;;;23.98;;
21862;SDS011;11096;51.338;12.524;2023-12-07T05:42:41;51.38;;;24.27;;
21862;SDS011;11096;51.338;12.524;2023-12-07T05:45:07;52.83;;;24.83;;
21862;SDS011;11096;51.338;12.524;2023-12-07T05:47:35;52.17;;;23.27;;
21862;SDS011;11096;51.338;12.524;2023-12-07T05:50:01;52.13;;;23.98;;
21862;SDS011;11096;51.338;12.524;2023-12-07T05:52:28;53.10;;;25.73;;
21862;SDS011;11096;51.338;12.524;2023-12-07T05:54:53;56.85;;;26.02;;
21862;SDS011;11096;51.338;12.524;2023-12-07T05:57:19;60.33;;;26.45;;
21862;SDS011;11096;51.338;12.524;2023-12-07T05:59:44;56.70;;;25.77;;
21862;SDS011;11096;51.338;12.524;2023-12-07T06:02:09;54.45;;;25.75;;
21862;SDS011;11096;51.338;12.524;2023-12-07T06:04:35;52.40;;;23.15;;
21862;SDS011;11096;51.338;12.524;2023-12-07T06:07:00;54.42;;;26.67;;
21862;SDS011;11096;51.338;12.524;2023-12-07T06:09:27;59.15;;;27.17;;
21862;SDS011;11096;51.338;12.524;2023-12-07T06:11:53;56.92;;;26.17;;
21862;SDS011;11096;51.338;12.524;2023-12-07T06:14:19;57.35;;;25.52;;
21862;SDS011;11096;51.338;12.524;2023-12-07T06:16:45;58.35;;;25.73;;
21862;SDS011;11096;51.338;12.524;2023-12-07T06:19:10;55.85;;;25.30;;
21862;SDS011;11096;51.338;12.524;2023-12-07T06:21:35;56.30;;;25.48;;
21862;SDS011;11096;51.338;12.524;2023-12-07T06:24:01;56.33;;;25.63;;
21862;SDS011;11096;51.338;12.524;2023-12-07T06:26:26;54.72;;;24.85;;
21862;SDS011;11096;51.338;12.524;2023-12-07T06:28:51;56.22;;;25.67;;
21862;SDS011;11096;51.338;12.524;2023-12-07T06:31:17;55.60;;;26.08;;
21862;SDS011;11096;51.338;12.524;2023-12-07T06:33:46;54.58;;;25.23;;
21862;SDS011;11096;51.338;12.524;2023-12-07T06:36:17;49.83;;;24.02;;
21862;SDS011;11096;51.338;12.524;2023-12-07T06:38:44;54.30;;;25.15;;
21862;SDS011;11096;51.338;12.524;2023-12-07T06:41:09;54.20;;;26.05;;
21862;SDS011;11096;51.338;12.524;2023-12-07T06:43:35;51.55;;;24.25;;
21862;SDS011;11096;51.338;12.524;2023-12-07T06:46:00;54.70;;;25.55;;
21862;SDS011;11096;51.338;12.524;2023-12-07T06:48:26;62.63;;;27.05;;
21862;SDS011;11096;51.338;12.524;2023-12-07T06:50:51;58.47;;;26.25;;
21862;SDS011;11096;51.338;12.524;2023-12-07T06:53:16;65.93;;;28.63;;
21862;SDS011;11096;51.338;12.524;2023-12-07T06:55:43;59.05;;;26.42;;
21862;SDS011;11096;51.338;12.524;2023-12-07T06:58:09;60.25;;;28.17;;
21862;SDS011;11096;51.338;12.524;2023-12-07T07:00:35;56.53;;;27.48;;
21862;SDS011;11096;51.338;12.524;2023-12-07T07:03:01;58.65;;;26.33;;
21862;SDS011;11096;51.338;12.524;2023-12-07T07:05:26;54.97;;;26.20;;
21862;SDS011;11096;51.338;12.524;2023-12-07T07:07:52;61.92;;;26.55;;
21862;SDS011;11096;51.338;12.524;2023-12-07T07:10:17;59.35;;;26.92;;
21862;SDS011;11096;51.338;12.524;2023-12-07T07:12:43;53.60;;;26.13;;
21862;SDS011;11096;51.338;12.524;2023-12-07T07:15:08;61.33;;;27.25;;
21862;SDS011;11096;51.338;12.524;2023-12-07T07:17:34;61.42;;;27.05;;
21862;SDS011;11096;51.338;12.524;2023-12-07T07:19:59;63.33;;;27.30;;
21862;SDS011;11096;51.338;12.524;2023-12-07T07:22:25;59.92;;;25.83;;
21862;SDS011;11096;51.338;12.524;2023-12-07T07:24:50;60.55;;;26.38;;
21862;SDS011;11096;51.338;12.524;2023-12-07T07:27:16;63.00;;;26.30;;
21862;SDS011;11096;51.338;12.524;2023-12-07T07:29:41;61.78;;;26.15;;
21862;SDS011;11096;51.338;12.524;2023-12-07T07:32:06;65.80;;;26.83;;
21862;SDS011;11096;51.338;12.524;2023-12-07T07:34:32;56.95;;;26.52;;
21862;SDS011;11096;51.338;12.524;2023-12-07T07:36:58;61.25;;;26.48;;
21862;SDS011;11096;51.338;12.524;2023-12-07T07:39:23;58.80;;;25.77;;
21862;SDS011;11096;51.338;12.524;2023-12-07T07:41:48;61.33;;;26.02;;
21862;SDS011;11096;51.338;12.524;2023-12-07T07:44:14;60.40;;;26.90;;
21862;SDS011;11096;51.338;12.524;2023-12-07T07:46:42;60.65;;;26.55;;
21862;SDS011;11096;51.338;12.524;2023-12-07T07:49:08;54.00;;;24.70;;
21862;SDS011;11096;51.338;12.524;2023-12-07T07:51:33;56.05;;;26.33;;
21862;SDS011;11096;51.338;12.524;2023-12-07T07:53:59;58.10;;;26.05;;
21862;SDS011;11096;51.338;12.524;2023-12-07T07:56:24;53.40;;;25.50;;
21862;SDS011;11096;51.338;12.524;2023-12-07T07:58:50;55.22;;;24.75;;
21862;SDS011;11096;51.338;12.524;2023-12-07T08:01:15;52.13;;;24.70;;
21862;SDS011;11096;51.338;12.524;2023-12-07T08:03:41;53.63;;;25.60;;
21862;SDS011;11096;51.338;12.524;2023-12-07T08:06:06;55.42;;;25.65;;
21862;SDS011;11096;51.338;12.524;2023-12-07T08:08:33;52.50;;;24.58;;
21862;SDS011;11096;51.338;12.524;2023-12-07T08:10:58;52.10;;;25.45;;
21862;SDS011;11096;51.338;12.524;2023-12-07T08:13:24;52.88;;;25.27;;
21862;SDS011;11096;51.338;12.524;2023-12-07T08:15:49;52.15;;;25.45;;
21862;SDS011;11096;51.338;12.524;2023-12-07T08:18:15;58.28;;;25.75;;
21862;SDS011;11096;51.338;12.524;2023-12-07T08:20:40;55.33;;;25.35;;
21862;SDS011;11096;51.338;12.524;2023-12-07T08:23:05;57.25;;;25.77;;
21862;SDS011;11096;51.338;12.524;2023-12-07T08:25:31;51.10;;;25.30;;
21862;SDS011;11096;51.338;12.524;2023-12-07T08:27:57;57.50;;;26.42;;
21862;SDS011;11096;51.338;12.524;2023-12-07T08:30:22;55.78;;;26.45;;
21862;SDS011;11096;51.338;12.524;2023-12-07T08:32:48;48.83;;;23.27;;
21862;SDS011;11096;51.338;12.524;2023-12-07T08:35:13;53.20;;;24.60;;
21862;SDS011;11096;51.338;12.524;2023-12-07T08:37:39;51.95;;;23.73;;
21862;SDS011;11096;51.338;12.524;2023-12-07T08:40:06;54.85;;;24.25;;
21862;SDS011;11096;51.338;12.524;2023-12-07T08:42:31;49.90;;;23.88;;
21862;SDS011;11096;51.338;12.524;2023-12-07T08:44:57;50.88;;;25.15;;
21862;SDS011;11096;51.338;12.524;2023-12-07T08:47:23;47.70;;;24.35;;
21862;SDS011;11096;51.338;12.524;2023-12-07T08:49:48;52.30;;;25.02;;
21862;SDS011;11096;51.338;12.524;2023-12-07T08:52:16;49.53;;;24.15;;
21862;SDS011;11096;51.338;12.524;2023-12-07T08:54:42;50.08;;;23.75;;
21862;SDS011;11096;51.338;12.524;2023-12-07T08:57:08;50.35;;;24.95;;
21862;SDS011;11096;51.338;12.524;2023-12-07T08:59:33;52.50;;;23.23;;
21862;SDS011;11096;51.338;12.524;2023-12-07T09:01:59;49.17;;;24.17;;
21862;SDS011;11096;51.338;12.524;2023-12-07T09:04:25;47.03;;;24.52;;
21862;SDS011;11096;51.338;12.524;2023-12-07T09:06:50;48.80;;;24.02;;
21862;SDS011;11096;51.338;12.524;2023-12-07T09:09:15;46.20;;;24.05;;
21862;SDS011;11096;51.338;12.524;2023-12-07T09:11:41;50.33;;;25.25;;
21862;SDS011;11096;51.338;12.524;2023-12-07T09:14:06;46.55;;;23.23;;
21862;SDS011;11096;51.338;12.524;2023-12-07T09:16:32;48.83;;;23.95;;
21862;SDS011;11096;51.338;12.524;2023-12-07T09:18:58;52.05;;;25.58;;
21862;SDS011;11096;51.338;12.524;2023-12-07T09:21:23;47.20;;;24.02;;
21862;SDS011;11096;51.338;12.524;2023-12-07T09:23:48;48.05;;;24.80;;
21862;SDS011;11096;51.338;12.524;2023-12-07T09:26:14;45.67;;;24.08;;
21862;SDS011;11096;51.338;12.524;2023-12-07T09:28:39;53.53;;;24.77;;
21862;SDS011;11096;51.338;12.524;2023-12-07T09:31:05;49.03;;;24.65;;
21862;SDS011;11096;51.338;12.524;2023-12-07T09:33:31;48.58;;;23.60;;
21862;SDS011;11096;51.338;12.524;2023-12-07T09:35:56;53.22;;;25.20;;
21862;SDS011;11096;51.338;12.524;2023-12-07T09:38:22;46.28;;;24.30;;
21862;SDS011;11096;51.338;12.524;2023-12-07T09:40:47;49.10;;;24.17;;
21862;SDS011;11096;51.338;12.524;2023-12-07T09:43:17;49.38;;;24.00;;
21862;SDS011;11096;51.338;12.524;2023-12-07T09:45:43;50.38;;;24.48;;
21862;SDS011;11096;51.338;12.524;2023-12-07T09:48:09;47.08;;;23.33;;
21862;SDS011;11096;51.338;12.524;2023-12-07T09:50:35;45.63;;;22.75;;
21862;SDS011;11096;51.338;12.524;2023-12-07T09:53:02;47.05;;;23.77;;
21862;SDS011;11096;51.338;12.524;2023-12-07T09:55:27;53.03;;;24.40;;
21862;SDS011;11096;51.338;12.524;2023-12-07T09:57:53;50.60;;;24.38;;
21862;SDS011;11096;51.338;12.524;2023-12-07T10:00:22;46.28;;;23.42;;
21862;SDS011;11096;51.338;12.524;2023-12-07T10:02:47;44.47;;;22.42;;
21862;SDS011;11096;51.338;12.524;2023-12-07T10:05:13;47.13;;;24.05;;
21862;SDS011;11096;51.338;12.524;2023-12-07T10:07:41;44.83;;;24.13;;
21862;SDS011;11096;51.338;12.524;2023-12-07T10:10:08;49.10;;;23.95;;
21862;SDS011;11096;51.338;12.524;2023-12-07T10:15:16;44.50;;;23.60;;
21862;SDS011;11096;51.338;12.524;2023-12-07T10:17:50;46.70;;;23.27;;
21862;SDS011;11096;51.338;12.524;2023-12-07T10:20:20;46.05;;;23.15;;
21862;SDS011;11096;51.338;12.524;2023-12-07T10:23:03;46.40;;;24.10;;
21862;SDS011;11096;51.338;12.524;2023-12-07T10:25:35;48.25;;;24.40;;
21862;SDS011;11096;51.338;12.524;2023-12-07T10:28:02;42.58;;;23.45;;
21862;SDS011;11096;51.338;12.524;2023-12-07T10:30:36;43.05;;;23.45;;
21862;SDS011;11096;51.338;12.524;2023-12-07T10:33:04;45.60;;;24.63;;
21862;SDS011;11096;51.338;12.524;2023-12-07T10:35:32;47.88;;;23.75;;
21862;SDS011;11096;51.338;12.524;2023-12-07T10:37:57;43.65;;;23.02;;
21862;SDS011;11096;51.338;12.524;2023-12-07T10:40:23;45.28;;;24.10;;
21862;SDS011;11096;51.338;12.524;2023-12-07T10:42:48;44.10;;;23.10;;
21862;SDS011;11096;51.338;12.524;2023-12-07T10:45:15;48.25;;;23.35;;
21862;SDS011;11096;51.338;12.524;2023-12-07T10:47:41;45.53;;;23.00;;
21862;SDS011;11096;51.338;12.524;2023-12-07T10:50:09;42.22;;;22.98;;
21862;SDS011;11096;51.338;12.524;2023-12-07T10:52:45;48.17;;;24.65;;
21862;SDS011;11096;51.338;12.524;2023-12-07T10:55:16;42.05;;;22.85;;
21862;SDS011;11096;51.338;12.524;2023-12-07T10:57:45;44.72;;;23.73;;
21862;SDS011;11096;51.338;12.524;2023-12-07T11:00:12;42.30;;;23.23;;
21862;SDS011;11096;51.338;12.524;2023-12-07T11:02:38;45.05;;;24.00;;
21862;SDS011;11096;51.338;12.524;2023-12-07T11:05:06;41.78;;;22.42;;
21862;SDS011;11096;51.338;12.524;2023-12-07T11:07:52;45.05;;;23.30;;
21862;SDS011;11096;51.338;12.524;2023-12-07T11:10:27;43.38;;;22.27;;
21862;SDS011;11096;51.338;12.524;2023-12-07T11:13:05;46.92;;;23.98;;
21862;SDS011;11096;51.338;12.524;2023-12-07T11:15:41;40.47;;;22.45;;
21862;SDS011;11096;51.338;12.524;2023-12-07T11:18:06;40.70;;;23.70;;
21862;SDS011;11096;51.338;12.524;2023-12-07T11:20:39;45.38;;;23.15;;
21862;SDS011;11096;51.338;12.524;2023-12-07T11:23:09;41.30;;;22.88;;
21862;SDS011;11096;51.338;12.524;2023-12-07T11:25:35;42.05;;;23.92;;
21862;SDS011;11096;51.338;12.524;2023-12-07T11:28:04;40.95;;;21.60;;
21862;SDS011;11096;51.338;12.524;2023-12-07T11:30:31;40.80;;;22.38;;
21862;SDS011;11096;51.338;12.524;2023-12-07T11:32:58;40.88;;;22.27;;
21862;SDS011;11096;51.338;12.524;2023-12-07T11:35:24;40.85;;;22.02;;
21862;SDS011;11096;51.338;12.524;2023-12-07T11:40:29;41.75;;;22.58;;
21862;SDS011;11096;51.338;12.524;2023-12-07T11:42:56;40.97;;;22.63;;
21862;SDS011;11096;51.338;12.524;2023-12-07T11:45:46;36.13;;;21.48;;
21862;SDS011;11096;51.338;12.524;2023-12-07T11:48:18;43.45;;;20.60;;
21862;SDS011;11096;51.338;12.524;2023-12-07T11:53:38;38.00;;;22.13;;
21862;SDS011;11096;51.338;12.524;2023-12-07T11:58:31;43.60;;;23.80;;
21862;SDS011;11096;51.338;12.524;2023-12-07T12:00:58;39.47;;;21.65;;
21862;SDS011;11096;51.338;12.524;2023-12-07T12:03:24;37.78;;;22.08;;
21862;SDS011;11096;51.338;12.524;2023-12-07T12:05:50;40.05;;;22.77;;
21862;SDS011;11096;51.338;12.524;2023-12-07T12:08:16;39.75;;;22.10;;
21862;SDS011;11096;51.338;12.524;2023-12-07T12:10:42;42.10;;;21.90;;
21862;SDS011;11096;51.338;12.524;2023-12-07T12:13:08;41.50;;;23.27;;
21862;SDS011;11096;51.338;12.524;2023-12-07T12:15:34;41.45;;;22.67;;
21862;SDS011;11096;51.338;12.524;2023-12-07T12:18:00;37.80;;;22.02;;
21862;SDS011;11096;51.338;12.524;2023-12-07T12:20:26;39.67;;;22.45;;
21862;SDS011;11096;51.338;12.524;2023-12-07T12:22:52;41.53;;;23.10;;
21862;SDS011;11096;51.338;12.524;2023-12-07T12:25:25;44.42;;;22.75;;
21862;SDS011;11096;51.338;12.524;2023-12-07T12:27:53;41.35;;;25.05;;
21862;SDS011;11096;51.338;12.524;2023-12-07T12:30:20;49.63;;;25.77;;
21862;SDS011;11096;51.338;12.524;2023-12-07T12:32:50;42.58;;;23.10;;
21862;SDS011;11096;51.338;12.524;2023-12-07T12:35:16;41.88;;;23.65;;
21862;SDS011;11096;51.338;12.524;2023-12-07T12:37:43;41.97;;;23.85;;
21862;SDS011;11096;51.338;12.524;2023-12-07T12:40:12;40.50;;;22.35;;
21862;SDS011;11096;51.338;12.524;2023-12-07T12:42:42;38.08;;;21.75;;
21862;SDS011;11096;51.338;12.524;2023-12-07T12:45:09;37.95;;;20.75;;
21862;SDS011;11096;51.338;12.524;2023-12-07T12:47:36;39.75;;;21.98;;
21862;SDS011;11096;51.338;12.524;2023-12-07T12:50:02;39.22;;;22.17;;
21862;SDS011;11096;51.338;12.524;2023-12-07T12:52:30;39.13;;;21.75;;
21862;SDS011;11096;51.338;12.524;2023-12-07T12:54:56;41.17;;;22.35;;
21862;SDS011;11096;51.338;12.524;2023-12-07T12:57:22;41.25;;;22.33;;
21862;SDS011;11096;51.338;12.524;2023-12-07T12:59:48;41.03;;;22.02;;
21862;SDS011;11096;51.338;12.524;2023-12-07T13:02:15;39.80;;;21.58;;
21862;SDS011;11096;51.338;12.524;2023-12-07T13:04:40;41.85;;;21.48;;
21862;SDS011;11096;51.338;12.524;2023-12-07T13:07:05;41.97;;;23.10;;
21862;SDS011;11096;51.338;12.524;2023-12-07T13:09:31;39.38;;;22.40;;
21862;SDS011;11096;51.338;12.524;2023-12-07T13:11:57;38.13;;;20.52;;
21862;SDS011;11096;51.338;12.524;2023-12-07T13:14:23;37.30;;;20.98;;
21862;SDS011;11096;51.338;12.524;2023-12-07T13:16:49;36.97;;;20.58;;
21862;SDS011;11096;51.338;12.524;2023-12-07T13:19:14;36.65;;;21.17;;
21862;SDS011;11096;51.338;12.524;2023-12-07T13:21:40;38.00;;;21.75;;
21862;SDS011;11096;51.338;12.524;2023-12-07T13:24:05;39.67;;;21.48;;
21862;SDS011;11096;51.338;12.524;2023-12-07T13:26:32;38.10;;;20.25;;
21862;SDS011;11096;51.338;12.524;2023-12-07T13:28:58;38.33;;;21.35;;
21862;SDS011;11096;51.338;12.524;2023-12-07T13:31:24;40.47;;;20.92;;
21862;SDS011;11096;51.338;12.524;2023-12-07T13:33:50;35.00;;;19.08;;
21862;SDS011;11096;51.338;12.524;2023-12-07T13:36:15;34.95;;;18.92;;
21862;SDS011;11096;51.338;12.524;2023-12-07T13:38:45;34.78;;;20.65;;
21862;SDS011;11096;51.338;12.524;2023-12-07T13:41:12;39.72;;;20.45;;
21862;SDS011;11096;51.338;12.524;2023-12-07T13:43:37;37.72;;;20.42;;
21862;SDS011;11096;51.338;12.524;2023-12-07T13:46:03;40.13;;;20.00;;
21862;SDS011;11096;51.338;12.524;2023-12-07T13:48:28;35.58;;;19.85;;
21862;SDS011;11096;51.338;12.524;2023-12-07T13:50:54;37.17;;;19.55;;
21862;SDS011;11096;51.338;12.524;2023-12-07T13:53:19;36.38;;;19.80;;
21862;SDS011;11096;51.338;12.524;2023-12-07T13:55:45;37.10;;;19.88;;
21862;SDS011;11096;51.338;12.524;2023-12-07T13:58:11;34.28;;;19.38;;
21862;SDS011;11096;51.338;12.524;2023-12-07T14:00:37;34.70;;;19.60;;
21862;SDS011;11096;51.338;12.524;2023-12-07T14:03:03;33.22;;;18.63;;
21862;SDS011;11096;51.338;12.524;2023-12-07T14:05:29;39.08;;;20.48;;
21862;SDS011;11096;51.338;12.524;2023-12-07T14:07:55;39.25;;;18.90;;
21862;SDS011;11096;51.338;12.524;2023-12-07T14:10:21;35.05;;;20.02;;
21862;SDS011;11096;51.338;12.524;2023-12-07T14:12:47;36.28;;;20.33;;
21862;SDS011;11096;51.338;12.524;2023-12-07T14:15:13;35.70;;;19.50;;
21862;SDS011;11096;51.338;12.524;2023-12-07T14:17:38;36.53;;;19.40;;
21862;SDS011;11096;51.338;12.524;2023-12-07T14:20:07;37.72;;;20.05;;